sensor_id;sensor_type;location;lat;lon;timestamp;P1;durP1;ratioP1;P2;durP2;ratioP2
4533;SDS011;2279;51.448;7.306;2022-07-25T00:02:16;6.60;;;6.03;;
4533;SDS011;2279;51.448;7.306;2022-07-25T00:04:42;8.17;;;6.80;;
4533;SDS011;2279;51.448;7.306;2022-07-25T00:07:08;6.00;;;5.40;;
4533;SDS011;2279;51.448;7.306;2022-07-25T00:09:34;6.50;;;5.90;;
4533;SDS011;2279;51.448;7.306;2022-07-25T00:12:00;6.90;;;6.20;;
4533;SDS011;2279;51.448;7.306;2022-07-25T00:14:26;6.90;;;6.20;;
4533;SDS011;2279;51.448;7.306;2022-07-25T00:16:52;7.10;;;6.37;;
4533;SDS011;2279;51.448;7.306;2022-07-25T00:19:18;6.70;;;6.10;;
4533;SDS011;2279;51.448;7.306;2022-07-25T00:21:44;7.90;;;7.20;;
4533;SDS011;2279;51.448;7.306;2022-07-25T00:24:10;7.33;;;6.63;;
4533;SDS011;2279;51.448;7.306;2022-07-25T00:26:36;6.40;;;5.80;;
4533;SDS011;2279;51.448;7.306;2022-07-25T00:29:02;6.83;;;6.13;;
4533;SDS011;2279;51.448;7.306;2022-07-25T00:31:28;6.30;;;5.80;;
4533;SDS011;2279;51.448;7.306;2022-07-25T00:33:54;7.33;;;6.63;;
4533;SDS011;2279;51.448;7.306;2022-07-25T00:36:20;9.50;;;7.00;;
4533;SDS011;2279;51.448;7.306;2022-07-25T00:38:46;8.13;;;5.90;;
4533;SDS011;2279;51.448;7.306;2022-07-25T00:41:12;6.10;;;5.60;;
4533;SDS011;2279;51.448;7.306;2022-07-25T00:43:41;7.80;;;7.00;;
4533;SDS011;2279;51.448;7.306;2022-07-25T00:46:10;6.83;;;6.27;;
4533;SDS011;2279;51.448;7.306;2022-07-25T00:48:36;6.00;;;5.50;;
4533;SDS011;2279;51.448;7.306;2022-07-25T00:51:02;7.83;;;6.00;;
4533;SDS011;2279;51.448;7.306;2022-07-25T00:53:29;7.17;;;6.57;;
4533;SDS011;2279;51.448;7.306;2022-07-25T00:55:55;6.30;;;5.80;;
4533;SDS011;2279;51.448;7.306;2022-07-25T00:58:21;6.93;;;6.33;;
4533;SDS011;2279;51.448;7.306;2022-07-25T01:00:47;7.03;;;6.43;;
4533;SDS011;2279;51.448;7.306;2022-07-25T01:03:13;7.57;;;5.17;;
4533;SDS011;2279;51.448;7.306;2022-07-25T01:05:39;7.10;;;6.40;;
4533;SDS011;2279;51.448;7.306;2022-07-25T01:08:05;7.33;;;6.20;;
4533;SDS011;2279;51.448;7.306;2022-07-25T01:10:31;6.07;;;5.47;;
4533;SDS011;2279;51.448;7.306;2022-07-25T01:12:57;7.77;;;6.33;;
4533;SDS011;2279;51.448;7.306;2022-07-25T01:15:24;8.40;;;6.13;;
4533;SDS011;2279;51.448;7.306;2022-07-25T01:17:50;6.30;;;5.80;;
4533;SDS011;2279;51.448;7.306;2022-07-25T01:20:17;7.67;;;6.47;;
4533;SDS011;2279;51.448;7.306;2022-07-25T01:22:43;5.93;;;5.43;;
4533;SDS011;2279;51.448;7.306;2022-07-25T01:25:10;6.57;;;5.87;;
4533;SDS011;2279;51.448;7.306;2022-07-25T01:27:36;6.20;;;5.67;;
4533;SDS011;2279;51.448;7.306;2022-07-25T01:30:03;8.83;;;6.70;;
4533;SDS011;2279;51.448;7.306;2022-07-25T01:32:29;6.90;;;6.27;;
4533;SDS011;2279;51.448;7.306;2022-07-25T01:34:55;6.60;;;5.43;;
4533;SDS011;2279;51.448;7.306;2022-07-25T01:37:21;6.77;;;6.00;;
4533;SDS011;2279;51.448;7.306;2022-07-25T01:39:47;7.03;;;6.33;;
4533;SDS011;2279;51.448;7.306;2022-07-25T01:42:13;6.40;;;5.57;;
4533;SDS011;2279;51.448;7.306;2022-07-25T01:44:39;7.10;;;5.87;;
4533;SDS011;2279;51.448;7.306;2022-07-25T01:47:05;6.63;;;6.00;;
4533;SDS011;2279;51.448;7.306;2022-07-25T01:49:31;7.97;;;5.73;;
4533;SDS011;2279;51.448;7.306;2022-07-25T01:51:57;6.40;;;5.67;;
4533;SDS011;2279;51.448;7.306;2022-07-25T01:54:23;6.33;;;5.77;;
4533;SDS011;2279;51.448;7.306;2022-07-25T01:56:49;6.40;;;5.90;;
4533;SDS011;2279;51.448;7.306;2022-07-25T01:59:15;5.83;;;5.33;;
4533;SDS011;2279;51.448;7.306;2022-07-25T02:01:41;6.47;;;5.80;;
4533;SDS011;2279;51.448;7.306;2022-07-25T02:04:07;6.30;;;5.70;;
4533;SDS011;2279;51.448;7.306;2022-07-25T02:06:33;6.20;;;5.70;;
4533;SDS011;2279;51.448;7.306;2022-07-25T02:09:00;6.60;;;5.60;;
4533;SDS011;2279;51.448;7.306;2022-07-25T02:11:26;6.87;;;6.17;;
4533;SDS011;2279;51.448;7.306;2022-07-25T02:13:52;6.97;;;5.80;;
4533;SDS011;2279;51.448;7.306;2022-07-25T02:16:17;5.80;;;5.30;;
4533;SDS011;2279;51.448;7.306;2022-07-25T02:18:43;6.27;;;5.73;;
4533;SDS011;2279;51.448;7.306;2022-07-25T02:21:10;6.47;;;5.87;;
4533;SDS011;2279;51.448;7.306;2022-07-25T02:23:36;5.70;;;5.20;;
4533;SDS011;2279;51.448;7.306;2022-07-25T02:26:02;5.67;;;5.20;;
4533;SDS011;2279;51.448;7.306;2022-07-25T02:28:28;6.53;;;5.93;;
4533;SDS011;2279;51.448;7.306;2022-07-25T02:30:54;6.27;;;5.70;;
4533;SDS011;2279;51.448;7.306;2022-07-25T02:33:20;7.37;;;6.67;;
4533;SDS011;2279;51.448;7.306;2022-07-25T02:35:46;7.17;;;6.43;;
4533;SDS011;2279;51.448;7.306;2022-07-25T02:38:12;6.23;;;5.63;;
4533;SDS011;2279;51.448;7.306;2022-07-25T02:40:44;6.23;;;5.73;;
4533;SDS011;2279;51.448;7.306;2022-07-25T02:43:10;6.57;;;6.07;;
4533;SDS011;2279;51.448;7.306;2022-07-25T02:45:36;6.40;;;5.80;;
4533;SDS011;2279;51.448;7.306;2022-07-25T02:48:02;5.83;;;5.33;;
4533;SDS011;2279;51.448;7.306;2022-07-25T02:50:28;6.33;;;5.83;;
4533;SDS011;2279;51.448;7.306;2022-07-25T02:52:55;7.50;;;6.90;;
4533;SDS011;2279;51.448;7.306;2022-07-25T02:55:21;6.43;;;5.37;;
4533;SDS011;2279;51.448;7.306;2022-07-25T02:57:47;7.80;;;7.10;;
4533;SDS011;2279;51.448;7.306;2022-07-25T03:00:13;8.43;;;6.57;;
4533;SDS011;2279;51.448;7.306;2022-07-25T03:02:39;6.37;;;5.87;;
4533;SDS011;2279;51.448;7.306;2022-07-25T03:05:06;6.93;;;6.33;;
4533;SDS011;2279;51.448;7.306;2022-07-25T03:07:32;8.77;;;7.30;;
4533;SDS011;2279;51.448;7.306;2022-07-25T03:09:58;6.00;;;5.50;;
4533;SDS011;2279;51.448;7.306;2022-07-25T03:12:24;7.23;;;6.53;;
4533;SDS011;2279;51.448;7.306;2022-07-25T03:14:50;7.10;;;5.63;;
4533;SDS011;2279;51.448;7.306;2022-07-25T03:17:16;6.30;;;5.70;;
4533;SDS011;2279;51.448;7.306;2022-07-25T03:19:42;7.40;;;6.70;;
4533;SDS011;2279;51.448;7.306;2022-07-25T03:22:08;7.87;;;6.53;;
4533;SDS011;2279;51.448;7.306;2022-07-25T03:24:34;7.47;;;5.70;;
4533;SDS011;2279;51.448;7.306;2022-07-25T03:27:00;6.60;;;6.00;;
4533;SDS011;2279;51.448;7.306;2022-07-25T03:29:27;6.83;;;6.23;;
4533;SDS011;2279;51.448;7.306;2022-07-25T03:31:53;7.63;;;5.80;;
4533;SDS011;2279;51.448;7.306;2022-07-25T03:34:19;6.00;;;5.10;;
4533;SDS011;2279;51.448;7.306;2022-07-25T03:36:45;6.57;;;5.97;;
4533;SDS011;2279;51.448;7.306;2022-07-25T03:39:11;5.40;;;5.00;;
4533;SDS011;2279;51.448;7.306;2022-07-25T03:41:38;5.77;;;5.27;;
4533;SDS011;2279;51.448;7.306;2022-07-25T03:44:04;5.90;;;5.33;;
4533;SDS011;2279;51.448;7.306;2022-07-25T03:46:30;7.47;;;6.00;;
4533;SDS011;2279;51.448;7.306;2022-07-25T03:48:56;6.57;;;5.97;;
4533;SDS011;2279;51.448;7.306;2022-07-25T03:51:22;7.10;;;6.20;;
4533;SDS011;2279;51.448;7.306;2022-07-25T03:53:48;6.30;;;5.70;;
4533;SDS011;2279;51.448;7.306;2022-07-25T03:56:30;6.33;;;5.73;;
4533;SDS011;2279;51.448;7.306;2022-07-25T03:58:56;6.30;;;5.70;;
4533;SDS011;2279;51.448;7.306;2022-07-25T04:01:22;12.93;;;6.90;;
4533;SDS011;2279;51.448;7.306;2022-07-25T04:03:48;5.17;;;4.77;;
4533;SDS011;2279;51.448;7.306;2022-07-25T04:06:15;7.60;;;5.70;;
4533;SDS011;2279;51.448;7.306;2022-07-25T04:08:41;6.50;;;6.00;;
4533;SDS011;2279;51.448;7.306;2022-07-25T04:11:06;6.03;;;5.43;;
4533;SDS011;2279;51.448;7.306;2022-07-25T04:13:32;5.70;;;5.30;;
4533;SDS011;2279;51.448;7.306;2022-07-25T04:15:58;5.13;;;4.67;;
4533;SDS011;2279;51.448;7.306;2022-07-25T04:18:24;7.27;;;6.00;;
4533;SDS011;2279;51.448;7.306;2022-07-25T04:20:50;6.67;;;5.93;;
4533;SDS011;2279;51.448;7.306;2022-07-25T04:23:16;5.90;;;5.30;;
4533;SDS011;2279;51.448;7.306;2022-07-25T04:25:42;5.90;;;5.07;;
4533;SDS011;2279;51.448;7.306;2022-07-25T04:28:08;6.60;;;6.00;;
4533;SDS011;2279;51.448;7.306;2022-07-25T04:30:34;9.97;;;6.03;;
4533;SDS011;2279;51.448;7.306;2022-07-25T04:33:00;5.40;;;5.00;;
4533;SDS011;2279;51.448;7.306;2022-07-25T04:35:26;7.00;;;6.40;;
4533;SDS011;2279;51.448;7.306;2022-07-25T04:37:52;5.17;;;4.70;;
4533;SDS011;2279;51.448;7.306;2022-07-25T04:40:18;5.90;;;5.30;;
4533;SDS011;2279;51.448;7.306;2022-07-25T04:42:44;6.47;;;5.57;;
4533;SDS011;2279;51.448;7.306;2022-07-25T04:45:10;6.10;;;5.50;;
4533;SDS011;2279;51.448;7.306;2022-07-25T04:47:36;5.90;;;5.30;;
4533;SDS011;2279;51.448;7.306;2022-07-25T04:50:02;5.67;;;5.10;;
4533;SDS011;2279;51.448;7.306;2022-07-25T04:52:28;7.20;;;5.30;;
4533;SDS011;2279;51.448;7.306;2022-07-25T04:54:54;6.50;;;5.80;;
4533;SDS011;2279;51.448;7.306;2022-07-25T04:57:20;5.60;;;5.20;;
4533;SDS011;2279;51.448;7.306;2022-07-25T04:59:46;5.23;;;4.83;;
4533;SDS011;2279;51.448;7.306;2022-07-25T05:02:12;6.60;;;6.00;;
4533;SDS011;2279;51.448;7.306;2022-07-25T05:04:38;5.53;;;4.73;;
4533;SDS011;2279;51.448;7.306;2022-07-25T05:07:04;5.47;;;4.97;;
4533;SDS011;2279;51.448;7.306;2022-07-25T05:09:30;5.37;;;4.87;;
4533;SDS011;2279;51.448;7.306;2022-07-25T05:11:56;5.43;;;4.90;;
4533;SDS011;2279;51.448;7.306;2022-07-25T05:14:22;6.70;;;5.97;;
4533;SDS011;2279;51.448;7.306;2022-07-25T05:16:49;5.13;;;4.73;;
4533;SDS011;2279;51.448;7.306;2022-07-25T05:19:15;5.40;;;4.90;;
4533;SDS011;2279;51.448;7.306;2022-07-25T05:21:41;5.20;;;4.80;;
4533;SDS011;2279;51.448;7.306;2022-07-25T05:24:07;4.97;;;4.57;;
4533;SDS011;2279;51.448;7.306;2022-07-25T05:26:33;6.23;;;4.63;;
4533;SDS011;2279;51.448;7.306;2022-07-25T05:28:59;5.40;;;4.90;;
4533;SDS011;2279;51.448;7.306;2022-07-25T05:31:25;8.63;;;5.60;;
4533;SDS011;2279;51.448;7.306;2022-07-25T05:33:51;6.17;;;5.20;;
4533;SDS011;2279;51.448;7.306;2022-07-25T05:36:17;4.90;;;4.60;;
4533;SDS011;2279;51.448;7.306;2022-07-25T05:38:43;6.23;;;5.63;;
4533;SDS011;2279;51.448;7.306;2022-07-25T05:41:09;5.77;;;5.30;;
4533;SDS011;2279;51.448;7.306;2022-07-25T05:43:35;5.60;;;5.03;;
4533;SDS011;2279;51.448;7.306;2022-07-25T05:46:01;4.77;;;4.37;;
4533;SDS011;2279;51.448;7.306;2022-07-25T05:48:27;5.40;;;4.70;;
4533;SDS011;2279;51.448;7.306;2022-07-25T05:50:53;15.80;;;5.30;;
4533;SDS011;2279;51.448;7.306;2022-07-25T05:53:20;5.20;;;4.80;;
4533;SDS011;2279;51.448;7.306;2022-07-25T05:55:46;5.73;;;5.23;;
4533;SDS011;2279;51.448;7.306;2022-07-25T05:58:12;5.80;;;5.13;;
4533;SDS011;2279;51.448;7.306;2022-07-25T06:00:39;6.10;;;5.50;;
4533;SDS011;2279;51.448;7.306;2022-07-25T06:03:05;5.47;;;5.07;;
4533;SDS011;2279;51.448;7.306;2022-07-25T06:05:31;5.37;;;4.87;;
4533;SDS011;2279;51.448;7.306;2022-07-25T06:07:57;5.27;;;4.77;;
4533;SDS011;2279;51.448;7.306;2022-07-25T06:10:23;5.93;;;5.53;;
4533;SDS011;2279;51.448;7.306;2022-07-25T06:12:49;5.70;;;5.20;;
4533;SDS011;2279;51.448;7.306;2022-07-25T06:15:15;5.23;;;4.73;;
4533;SDS011;2279;51.448;7.306;2022-07-25T06:17:41;6.03;;;5.57;;
4533;SDS011;2279;51.448;7.306;2022-07-25T06:20:07;5.80;;;5.30;;
4533;SDS011;2279;51.448;7.306;2022-07-25T06:22:33;6.17;;;5.40;;
4533;SDS011;2279;51.448;7.306;2022-07-25T06:25:00;5.63;;;5.03;;
4533;SDS011;2279;51.448;7.306;2022-07-25T06:27:27;5.30;;;4.80;;
4533;SDS011;2279;51.448;7.306;2022-07-25T06:29:53;6.70;;;4.67;;
4533;SDS011;2279;51.448;7.306;2022-07-25T06:32:19;7.90;;;5.50;;
4533;SDS011;2279;51.448;7.306;2022-07-25T06:34:45;6.97;;;6.23;;
4533;SDS011;2279;51.448;7.306;2022-07-25T06:37:11;5.03;;;4.63;;
4533;SDS011;2279;51.448;7.306;2022-07-25T06:39:37;5.07;;;4.67;;
4533;SDS011;2279;51.448;7.306;2022-07-25T06:42:03;5.57;;;5.10;;
4533;SDS011;2279;51.448;7.306;2022-07-25T06:44:33;5.70;;;5.20;;
4533;SDS011;2279;51.448;7.306;2022-07-25T06:46:59;4.97;;;4.57;;
4533;SDS011;2279;51.448;7.306;2022-07-25T06:49:26;6.27;;;5.67;;
4533;SDS011;2279;51.448;7.306;2022-07-25T06:51:51;6.20;;;5.70;;
4533;SDS011;2279;51.448;7.306;2022-07-25T06:54:18;6.30;;;5.70;;
4533;SDS011;2279;51.448;7.306;2022-07-25T06:56:44;6.00;;;5.50;;
4533;SDS011;2279;51.448;7.306;2022-07-25T06:59:10;8.30;;;5.43;;
4533;SDS011;2279;51.448;7.306;2022-07-25T07:01:36;7.13;;;5.77;;
4533;SDS011;2279;51.448;7.306;2022-07-25T07:04:03;10.03;;;6.43;;
4533;SDS011;2279;51.448;7.306;2022-07-25T07:06:29;5.23;;;4.83;;
4533;SDS011;2279;51.448;7.306;2022-07-25T07:08:55;5.60;;;5.10;;
4533;SDS011;2279;51.448;7.306;2022-07-25T07:11:21;9.57;;;5.23;;
4533;SDS011;2279;51.448;7.306;2022-07-25T07:13:47;8.63;;;5.87;;
4533;SDS011;2279;51.448;7.306;2022-07-25T07:16:13;5.40;;;4.90;;
4533;SDS011;2279;51.448;7.306;2022-07-25T07:18:39;8.87;;;5.70;;
4533;SDS011;2279;51.448;7.306;2022-07-25T07:21:05;6.20;;;5.60;;
4533;SDS011;2279;51.448;7.306;2022-07-25T07:23:31;8.33;;;5.57;;
4533;SDS011;2279;51.448;7.306;2022-07-25T07:25:58;5.20;;;4.80;;
4533;SDS011;2279;51.448;7.306;2022-07-25T07:28:24;5.70;;;5.30;;
4533;SDS011;2279;51.448;7.306;2022-07-25T07:30:50;5.67;;;5.17;;
4533;SDS011;2279;51.448;7.306;2022-07-25T07:33:16;6.50;;;5.77;;
4533;SDS011;2279;51.448;7.306;2022-07-25T07:35:42;7.33;;;5.43;;
4533;SDS011;2279;51.448;7.306;2022-07-25T07:38:08;6.33;;;5.03;;
4533;SDS011;2279;51.448;7.306;2022-07-25T07:40:35;5.53;;;5.03;;
4533;SDS011;2279;51.448;7.306;2022-07-25T07:43:01;5.80;;;5.30;;
4533;SDS011;2279;51.448;7.306;2022-07-25T07:45:28;5.53;;;5.13;;
4533;SDS011;2279;51.448;7.306;2022-07-25T07:47:54;8.40;;;5.77;;
4533;SDS011;2279;51.448;7.306;2022-07-25T07:50:21;6.37;;;5.70;;
4533;SDS011;2279;51.448;7.306;2022-07-25T07:52:47;6.00;;;5.50;;
4533;SDS011;2279;51.448;7.306;2022-07-25T07:55:13;5.10;;;4.70;;
4533;SDS011;2279;51.448;7.306;2022-07-25T07:57:58;6.17;;;5.67;;
4533;SDS011;2279;51.448;7.306;2022-07-25T08:00:25;6.17;;;5.63;;
4533;SDS011;2279;51.448;7.306;2022-07-25T08:02:53;5.60;;;5.10;;
4533;SDS011;2279;51.448;7.306;2022-07-25T08:05:20;5.77;;;5.27;;
4533;SDS011;2279;51.448;7.306;2022-07-25T08:07:47;5.47;;;5.07;;
4533;SDS011;2279;51.448;7.306;2022-07-25T08:10:15;6.10;;;5.60;;
4533;SDS011;2279;51.448;7.306;2022-07-25T08:12:41;7.67;;;5.27;;
4533;SDS011;2279;51.448;7.306;2022-07-25T08:15:07;7.00;;;6.40;;
4533;SDS011;2279;51.448;7.306;2022-07-25T08:17:33;5.40;;;4.90;;
4533;SDS011;2279;51.448;7.306;2022-07-25T08:19:59;6.30;;;5.80;;
4533;SDS011;2279;51.448;7.306;2022-07-25T08:22:34;4.83;;;4.43;;
4533;SDS011;2279;51.448;7.306;2022-07-25T08:25:01;5.37;;;4.97;;
4533;SDS011;2279;51.448;7.306;2022-07-25T08:27:27;5.73;;;5.23;;
4533;SDS011;2279;51.448;7.306;2022-07-25T08:29:53;5.63;;;5.23;;
4533;SDS011;2279;51.448;7.306;2022-07-25T08:32:19;5.80;;;5.30;;
4533;SDS011;2279;51.448;7.306;2022-07-25T08:34:45;7.03;;;4.47;;
4533;SDS011;2279;51.448;7.306;2022-07-25T08:37:10;5.47;;;4.90;;
4533;SDS011;2279;51.448;7.306;2022-07-25T08:39:36;5.73;;;5.07;;
4533;SDS011;2279;51.448;7.306;2022-07-25T08:42:02;5.93;;;5.30;;
4533;SDS011;2279;51.448;7.306;2022-07-25T08:44:29;5.83;;;5.33;;
4533;SDS011;2279;51.448;7.306;2022-07-25T08:46:57;6.50;;;4.73;;
4533;SDS011;2279;51.448;7.306;2022-07-25T08:49:25;13.73;;;5.03;;
4533;SDS011;2279;51.448;7.306;2022-07-25T08:51:51;5.70;;;5.20;;
4533;SDS011;2279;51.448;7.306;2022-07-25T08:54:17;5.27;;;4.80;;
4533;SDS011;2279;51.448;7.306;2022-07-25T08:56:43;6.30;;;5.70;;
4533;SDS011;2279;51.448;7.306;2022-07-25T08:59:09;6.03;;;5.50;;
4533;SDS011;2279;51.448;7.306;2022-07-25T09:01:37;6.10;;;5.47;;
4533;SDS011;2279;51.448;7.306;2022-07-25T09:04:05;4.83;;;4.43;;
4533;SDS011;2279;51.448;7.306;2022-07-25T09:06:32;5.93;;;5.53;;
4533;SDS011;2279;51.448;7.306;2022-07-25T09:08:58;5.20;;;4.80;;
4533;SDS011;2279;51.448;7.306;2022-07-25T09:11:25;5.90;;;5.43;;
4533;SDS011;2279;51.448;7.306;2022-07-25T09:14:02;6.07;;;4.90;;
4533;SDS011;2279;51.448;7.306;2022-07-25T09:16:29;6.50;;;5.90;;
4533;SDS011;2279;51.448;7.306;2022-07-25T09:19:04;5.63;;;5.20;;
4533;SDS011;2279;51.448;7.306;2022-07-25T09:21:30;5.53;;;5.03;;
4533;SDS011;2279;51.448;7.306;2022-07-25T09:23:56;7.20;;;4.97;;
4533;SDS011;2279;51.448;7.306;2022-07-25T09:26:41;5.53;;;5.13;;
4533;SDS011;2279;51.448;7.306;2022-07-25T09:29:07;5.87;;;5.30;;
4533;SDS011;2279;51.448;7.306;2022-07-25T09:31:33;6.57;;;5.30;;
4533;SDS011;2279;51.448;7.306;2022-07-25T09:34:00;6.03;;;5.40;;
4533;SDS011;2279;51.448;7.306;2022-07-25T09:36:31;5.87;;;4.60;;
4533;SDS011;2279;51.448;7.306;2022-07-25T09:38:59;5.30;;;4.80;;
4533;SDS011;2279;51.448;7.306;2022-07-25T09:41:35;7.00;;;6.30;;
4533;SDS011;2279;51.448;7.306;2022-07-25T09:44:01;5.60;;;5.20;;
4533;SDS011;2279;51.448;7.306;2022-07-25T09:46:28;5.97;;;5.20;;
4533;SDS011;2279;51.448;7.306;2022-07-25T09:48:56;6.00;;;4.80;;
4533;SDS011;2279;51.448;7.306;2022-07-25T09:51:22;5.27;;;4.83;;
4533;SDS011;2279;51.448;7.306;2022-07-25T09:53:48;6.43;;;5.93;;
4533;SDS011;2279;51.448;7.306;2022-07-25T09:56:14;5.40;;;5.00;;
4533;SDS011;2279;51.448;7.306;2022-07-25T09:58:40;5.50;;;4.97;;
4533;SDS011;2279;51.448;7.306;2022-07-25T10:01:06;6.17;;;5.57;;
4533;SDS011;2279;51.448;7.306;2022-07-25T10:08:37;6.67;;;6.17;;
4533;SDS011;2279;51.448;7.306;2022-07-25T10:11:03;5.73;;;5.23;;
4533;SDS011;2279;51.448;7.306;2022-07-25T10:13:33;5.43;;;4.93;;
4533;SDS011;2279;51.448;7.306;2022-07-25T10:16:00;5.60;;;5.10;;
4533;SDS011;2279;51.448;7.306;2022-07-25T10:18:27;5.57;;;5.07;;
4533;SDS011;2279;51.448;7.306;2022-07-25T10:20:55;5.50;;;5.00;;
4533;SDS011;2279;51.448;7.306;2022-07-25T10:23:23;6.80;;;4.67;;
4533;SDS011;2279;51.448;7.306;2022-07-25T10:28:37;5.47;;;4.90;;
4533;SDS011;2279;51.448;7.306;2022-07-25T10:31:13;5.73;;;5.13;;
4533;SDS011;2279;51.448;7.306;2022-07-25T10:33:40;8.63;;;6.20;;
4533;SDS011;2279;51.448;7.306;2022-07-25T10:36:06;5.70;;;5.20;;
4533;SDS011;2279;51.448;7.306;2022-07-25T10:38:35;8.10;;;5.63;;
4533;SDS011;2279;51.448;7.306;2022-07-25T10:41:03;6.00;;;5.47;;
4533;SDS011;2279;51.448;7.306;2022-07-25T10:43:35;6.00;;;5.50;;
4533;SDS011;2279;51.448;7.306;2022-07-25T10:46:09;7.77;;;5.13;;
4533;SDS011;2279;51.448;7.306;2022-07-25T10:48:36;6.23;;;5.63;;
4533;SDS011;2279;51.448;7.306;2022-07-25T10:51:07;6.40;;;5.63;;
4533;SDS011;2279;51.448;7.306;2022-07-25T10:53:34;5.93;;;5.43;;
4533;SDS011;2279;51.448;7.306;2022-07-25T10:56:07;6.37;;;5.87;;
4533;SDS011;2279;51.448;7.306;2022-07-25T10:58:49;5.70;;;4.93;;
4533;SDS011;2279;51.448;7.306;2022-07-25T11:01:19;6.17;;;5.67;;
4533;SDS011;2279;51.448;7.306;2022-07-25T11:03:45;6.03;;;5.13;;
4533;SDS011;2279;51.448;7.306;2022-07-25T11:06:12;9.23;;;6.10;;
4533;SDS011;2279;51.448;7.306;2022-07-25T11:08:39;6.43;;;5.73;;
4533;SDS011;2279;51.448;7.306;2022-07-25T11:11:05;5.50;;;5.00;;
4533;SDS011;2279;51.448;7.306;2022-07-25T11:13:40;7.33;;;4.80;;
4533;SDS011;2279;51.448;7.306;2022-07-25T11:16:07;6.07;;;5.40;;
4533;SDS011;2279;51.448;7.306;2022-07-25T11:18:35;5.70;;;5.20;;
4533;SDS011;2279;51.448;7.306;2022-07-25T11:21:01;6.50;;;4.50;;
4533;SDS011;2279;51.448;7.306;2022-07-25T11:23:28;5.63;;;5.23;;
4533;SDS011;2279;51.448;7.306;2022-07-25T11:26:03;5.67;;;5.27;;
4533;SDS011;2279;51.448;7.306;2022-07-25T11:28:39;5.83;;;5.43;;
4533;SDS011;2279;51.448;7.306;2022-07-25T11:31:05;5.73;;;5.23;;
4533;SDS011;2279;51.448;7.306;2022-07-25T11:33:32;7.53;;;5.90;;
4533;SDS011;2279;51.448;7.306;2022-07-25T11:35:58;6.83;;;6.13;;
4533;SDS011;2279;51.448;7.306;2022-07-25T11:38:24;6.40;;;5.87;;
4533;SDS011;2279;51.448;7.306;2022-07-25T11:40:50;5.67;;;5.17;;
4533;SDS011;2279;51.448;7.306;2022-07-25T11:43:23;6.03;;;5.63;;
4533;SDS011;2279;51.448;7.306;2022-07-25T11:45:56;7.20;;;6.10;;
4533;SDS011;2279;51.448;7.306;2022-07-25T11:48:34;5.87;;;5.23;;
4533;SDS011;2279;51.448;7.306;2022-07-25T11:51:16;5.93;;;5.50;;
4533;SDS011;2279;51.448;7.306;2022-07-25T11:53:49;6.17;;;5.57;;
4533;SDS011;2279;51.448;7.306;2022-07-25T11:56:16;5.90;;;5.40;;
4533;SDS011;2279;51.448;7.306;2022-07-25T11:58:43;6.00;;;5.50;;
4533;SDS011;2279;51.448;7.306;2022-07-25T12:01:14;6.20;;;5.60;;
4533;SDS011;2279;51.448;7.306;2022-07-25T12:03:41;7.97;;;5.17;;
4533;SDS011;2279;51.448;7.306;2022-07-25T12:06:09;7.53;;;4.40;;
4533;SDS011;2279;51.448;7.306;2022-07-25T12:08:36;6.00;;;4.80;;
4533;SDS011;2279;51.448;7.306;2022-07-25T12:11:02;5.07;;;4.67;;
4533;SDS011;2279;51.448;7.306;2022-07-25T12:13:29;4.40;;;4.00;;
4533;SDS011;2279;51.448;7.306;2022-07-25T12:15:56;4.50;;;4.20;;
4533;SDS011;2279;51.448;7.306;2022-07-25T12:18:22;4.47;;;4.17;;
4533;SDS011;2279;51.448;7.306;2022-07-25T12:20:49;4.53;;;4.20;;
4533;SDS011;2279;51.448;7.306;2022-07-25T12:23:15;4.00;;;3.63;;
4533;SDS011;2279;51.448;7.306;2022-07-25T12:25:44;3.80;;;3.50;;
4533;SDS011;2279;51.448;7.306;2022-07-25T12:28:11;3.97;;;3.73;;
4533;SDS011;2279;51.448;7.306;2022-07-25T12:30:37;3.50;;;3.30;;
4533;SDS011;2279;51.448;7.306;2022-07-25T12:33:04;3.43;;;3.13;;
4533;SDS011;2279;51.448;7.306;2022-07-25T12:35:30;4.63;;;3.87;;
4533;SDS011;2279;51.448;7.306;2022-07-25T12:37:56;3.77;;;3.47;;
4533;SDS011;2279;51.448;7.306;2022-07-25T12:40:22;3.23;;;3.03;;
4533;SDS011;2279;51.448;7.306;2022-07-25T12:42:49;3.67;;;3.37;;
4533;SDS011;2279;51.448;7.306;2022-07-25T12:45:15;6.03;;;3.93;;
4533;SDS011;2279;51.448;7.306;2022-07-25T12:47:45;5.37;;;3.77;;
4533;SDS011;2279;51.448;7.306;2022-07-25T12:50:12;4.10;;;3.80;;
4533;SDS011;2279;51.448;7.306;2022-07-25T12:52:38;6.43;;;3.80;;
4533;SDS011;2279;51.448;7.306;2022-07-25T12:55:05;3.40;;;3.13;;
4533;SDS011;2279;51.448;7.306;2022-07-25T12:57:31;4.47;;;3.20;;
4533;SDS011;2279;51.448;7.306;2022-07-25T12:59:57;3.63;;;3.43;;
4533;SDS011;2279;51.448;7.306;2022-07-25T13:02:23;7.33;;;3.90;;
4533;SDS011;2279;51.448;7.306;2022-07-25T13:04:49;3.47;;;3.17;;
4533;SDS011;2279;51.448;7.306;2022-07-25T13:07:15;6.83;;;3.60;;
4533;SDS011;2279;51.448;7.306;2022-07-25T13:09:41;4.63;;;3.57;;
4533;SDS011;2279;51.448;7.306;2022-07-25T13:12:07;4.60;;;3.43;;
4533;SDS011;2279;51.448;7.306;2022-07-25T13:14:34;3.90;;;3.17;;
4533;SDS011;2279;51.448;7.306;2022-07-25T13:17:00;3.70;;;3.07;;
4533;SDS011;2279;51.448;7.306;2022-07-25T13:19:26;3.47;;;3.17;;
4533;SDS011;2279;51.448;7.306;2022-07-25T13:21:52;2.87;;;2.67;;
4533;SDS011;2279;51.448;7.306;2022-07-25T13:24:18;4.30;;;3.30;;
4533;SDS011;2279;51.448;7.306;2022-07-25T13:26:44;3.20;;;2.93;;
4533;SDS011;2279;51.448;7.306;2022-07-25T13:29:10;3.73;;;2.80;;
4533;SDS011;2279;51.448;7.306;2022-07-25T13:31:36;4.33;;;3.57;;
4533;SDS011;2279;51.448;7.306;2022-07-25T13:34:03;3.60;;;3.00;;
4533;SDS011;2279;51.448;7.306;2022-07-25T13:36:30;3.13;;;2.80;;
4533;SDS011;2279;51.448;7.306;2022-07-25T13:38:56;2.90;;;2.70;;
4533;SDS011;2279;51.448;7.306;2022-07-25T13:41:22;2.97;;;2.77;;
4533;SDS011;2279;51.448;7.306;2022-07-25T13:43:48;3.80;;;2.60;;
4533;SDS011;2279;51.448;7.306;2022-07-25T13:46:14;3.53;;;3.20;;
4533;SDS011;2279;51.448;7.306;2022-07-25T13:48:40;4.07;;;3.73;;
4533;SDS011;2279;51.448;7.306;2022-07-25T13:51:06;7.30;;;2.87;;
4533;SDS011;2279;51.448;7.306;2022-07-25T13:53:32;6.23;;;3.00;;
4533;SDS011;2279;51.448;7.306;2022-07-25T13:55:58;2.53;;;2.33;;
4533;SDS011;2279;51.448;7.306;2022-07-25T13:58:24;4.23;;;2.83;;
4533;SDS011;2279;51.448;7.306;2022-07-25T14:00:50;4.10;;;3.80;;
4533;SDS011;2279;51.448;7.306;2022-07-25T14:03:16;4.13;;;3.00;;
4533;SDS011;2279;51.448;7.306;2022-07-25T14:05:42;3.27;;;2.97;;
4533;SDS011;2279;51.448;7.306;2022-07-25T14:08:08;3.70;;;3.37;;
4533;SDS011;2279;51.448;7.306;2022-07-25T14:10:34;4.00;;;2.87;;
4533;SDS011;2279;51.448;7.306;2022-07-25T14:13:00;2.83;;;2.40;;
4533;SDS011;2279;51.448;7.306;2022-07-25T14:15:26;3.80;;;2.40;;
4533;SDS011;2279;51.448;7.306;2022-07-25T14:17:52;6.00;;;2.63;;
4533;SDS011;2279;51.448;7.306;2022-07-25T14:20:18;2.73;;;2.53;;
4533;SDS011;2279;51.448;7.306;2022-07-25T14:22:44;2.67;;;2.43;;
4533;SDS011;2279;51.448;7.306;2022-07-25T14:25:10;5.67;;;3.60;;
4533;SDS011;2279;51.448;7.306;2022-07-25T14:27:37;2.90;;;2.63;;
4533;SDS011;2279;51.448;7.306;2022-07-25T14:30:04;2.63;;;2.43;;
4533;SDS011;2279;51.448;7.306;2022-07-25T14:32:30;2.70;;;2.50;;
4533;SDS011;2279;51.448;7.306;2022-07-25T14:34:56;2.70;;;2.50;;
4533;SDS011;2279;51.448;7.306;2022-07-25T14:37:24;3.43;;;3.07;;
4533;SDS011;2279;51.448;7.306;2022-07-25T14:39:50;3.90;;;3.10;;
4533;SDS011;2279;51.448;7.306;2022-07-25T14:42:16;6.20;;;2.70;;
4533;SDS011;2279;51.448;7.306;2022-07-25T14:44:42;2.50;;;2.20;;
4533;SDS011;2279;51.448;7.306;2022-07-25T14:47:08;2.53;;;2.23;;
4533;SDS011;2279;51.448;7.306;2022-07-25T14:49:34;4.30;;;3.03;;
4533;SDS011;2279;51.448;7.306;2022-07-25T14:52:00;10.43;;;2.83;;
4533;SDS011;2279;51.448;7.306;2022-07-25T14:54:27;2.67;;;2.47;;
4533;SDS011;2279;51.448;7.306;2022-07-25T14:56:56;2.57;;;2.37;;
4533;SDS011;2279;51.448;7.306;2022-07-25T14:59:22;3.07;;;2.77;;
4533;SDS011;2279;51.448;7.306;2022-07-25T15:01:49;3.33;;;2.50;;
4533;SDS011;2279;51.448;7.306;2022-07-25T15:04:15;2.40;;;2.20;;
4533;SDS011;2279;51.448;7.306;2022-07-25T15:06:45;4.63;;;2.23;;
4533;SDS011;2279;51.448;7.306;2022-07-25T15:09:11;3.80;;;2.30;;
4533;SDS011;2279;51.448;7.306;2022-07-25T15:11:37;3.07;;;2.77;;
4533;SDS011;2279;51.448;7.306;2022-07-25T15:14:03;2.40;;;2.30;;
4533;SDS011;2279;51.448;7.306;2022-07-25T15:16:29;4.20;;;2.70;;
4533;SDS011;2279;51.448;7.306;2022-07-25T15:18:55;2.70;;;2.50;;
4533;SDS011;2279;51.448;7.306;2022-07-25T15:21:22;3.83;;;2.53;;